La Villa, Texas
Current Conditions -  °F | °C
As of 3:35 PM on Friday 28 Nov 2014 (Local Time) from KT65 Reporting Station
Clear Clear  
Wind Chill: 77°   Ceiling: Unl
Heat Index: 78°   Visibility: 7mi
Dew Point: 52°   Wind: 10mph
Humidity: 41%   Direction: 140°SE
Pressure: 30.14"   Gusts: 18mph
Location:  26.3°N, 97.93°W
Report Text: KT65 282135Z AUTO 14009G16KT 7SM CLR 25/11 A3014 RMK AO2 T02520111
Loading
Personal Weather Stations






























Interactive Weather Map New forecast layout! Learn more

10-Day Weather Forecast

Advertisements
Track Severe Weather on mobile